sensor_id;sensor_type;location;lat;lon;timestamp;P1;durP1;ratioP1;P2;durP2;ratioP2
33954;SDS011;20233;50.804;7.126;2023-07-31T00:00:02;6.45;;;1.80;;
33954;SDS011;20233;50.804;7.126;2023-07-31T00:02:28;7.38;;;1.70;;
33954;SDS011;20233;50.804;7.126;2023-07-31T00:04:54;3.97;;;1.45;;
33954;SDS011;20233;50.804;7.126;2023-07-31T00:07:19;5.50;;;1.90;;
33954;SDS011;20233;50.804;7.126;2023-07-31T00:09:45;4.32;;;1.75;;
33954;SDS011;20233;50.804;7.126;2023-07-31T00:12:10;5.90;;;1.80;;
33954;SDS011;20233;50.804;7.126;2023-07-31T00:14:36;6.50;;;2.10;;
33954;SDS011;20233;50.804;7.126;2023-07-31T00:17:01;3.90;;;1.58;;
33954;SDS011;20233;50.804;7.126;2023-07-31T00:19:27;4.22;;;1.90;;
33954;SDS011;20233;50.804;7.126;2023-07-31T00:21:53;5.88;;;1.73;;
33954;SDS011;20233;50.804;7.126;2023-07-31T00:24:18;5.03;;;1.25;;
33954;SDS011;20233;50.804;7.126;2023-07-31T00:26:44;6.20;;;1.60;;
33954;SDS011;20233;50.804;7.126;2023-07-31T00:29:09;5.82;;;1.88;;
33954;SDS011;20233;50.804;7.126;2023-07-31T00:31:35;7.55;;;2.20;;
33954;SDS011;20233;50.804;7.126;2023-07-31T00:34:00;5.53;;;1.55;;
33954;SDS011;20233;50.804;7.126;2023-07-31T00:36:26;6.28;;;1.83;;
33954;SDS011;20233;50.804;7.126;2023-07-31T00:38:51;6.72;;;2.03;;
33954;SDS011;20233;50.804;7.126;2023-07-31T00:41:17;5.35;;;1.65;;
33954;SDS011;20233;50.804;7.126;2023-07-31T00:43:42;5.25;;;1.77;;
33954;SDS011;20233;50.804;7.126;2023-07-31T00:46:08;4.25;;;1.45;;
33954;SDS011;20233;50.804;7.126;2023-07-31T00:48:33;4.28;;;1.10;;
33954;SDS011;20233;50.804;7.126;2023-07-31T00:51:00;6.43;;;1.83;;
33954;SDS011;20233;50.804;7.126;2023-07-31T00:53:27;4.40;;;1.50;;
33954;SDS011;20233;50.804;7.126;2023-07-31T00:55:53;3.97;;;1.48;;
33954;SDS011;20233;50.804;7.126;2023-07-31T00:58:19;6.20;;;1.50;;
33954;SDS011;20233;50.804;7.126;2023-07-31T01:00:44;3.88;;;1.70;;
33954;SDS011;20233;50.804;7.126;2023-07-31T01:03:10;3.45;;;1.10;;
33954;SDS011;20233;50.804;7.126;2023-07-31T01:05:43;4.32;;;1.25;;
33954;SDS011;20233;50.804;7.126;2023-07-31T01:13:42;3.80;;;1.17;;
33954;SDS011;20233;50.804;7.126;2023-07-31T01:16:10;2.92;;;1.15;;
33954;SDS011;20233;50.804;7.126;2023-07-31T01:18:36;6.32;;;0.90;;
33954;SDS011;20233;50.804;7.126;2023-07-31T01:21:18;7.88;;;1.27;;
33954;SDS011;20233;50.804;7.126;2023-07-31T01:27:15;3.40;;;0.98;;
33954;SDS011;20233;50.804;7.126;2023-07-31T01:29:53;3.05;;;0.70;;
33954;SDS011;20233;50.804;7.126;2023-07-31T01:32:25;3.00;;;0.80;;
33954;SDS011;20233;50.804;7.126;2023-07-31T01:34:53;4.97;;;1.05;;
33954;SDS011;20233;50.804;7.126;2023-07-31T01:37:20;3.33;;;0.95;;
33954;SDS011;20233;50.804;7.126;2023-07-31T01:39:45;4.88;;;1.25;;
33954;SDS011;20233;50.804;7.126;2023-07-31T01:42:10;3.45;;;0.93;;
33954;SDS011;20233;50.804;7.126;2023-07-31T01:44:39;5.25;;;1.02;;
33954;SDS011;20233;50.804;7.126;2023-07-31T01:47:04;5.10;;;1.05;;
33954;SDS011;20233;50.804;7.126;2023-07-31T01:49:30;4.10;;;1.20;;
33954;SDS011;20233;50.804;7.126;2023-07-31T01:51:56;3.17;;;0.80;;
33954;SDS011;20233;50.804;7.126;2023-07-31T01:54:21;3.30;;;1.10;;
33954;SDS011;20233;50.804;7.126;2023-07-31T01:56:47;3.15;;;0.80;;
33954;SDS011;20233;50.804;7.126;2023-07-31T01:59:12;5.38;;;1.15;;
33954;SDS011;20233;50.804;7.126;2023-07-31T02:01:39;4.57;;;1.13;;
33954;SDS011;20233;50.804;7.126;2023-07-31T02:04:05;2.67;;;0.73;;
33954;SDS011;20233;50.804;7.126;2023-07-31T02:06:30;2.38;;;0.65;;
33954;SDS011;20233;50.804;7.126;2023-07-31T02:08:56;3.70;;;1.08;;
33954;SDS011;20233;50.804;7.126;2023-07-31T02:11:21;4.55;;;0.90;;
33954;SDS011;20233;50.804;7.126;2023-07-31T02:13:47;2.70;;;0.90;;
33954;SDS011;20233;50.804;7.126;2023-07-31T02:16:12;4.43;;;0.93;;
33954;SDS011;20233;50.804;7.126;2023-07-31T02:18:38;3.28;;;0.90;;
33954;SDS011;20233;50.804;7.126;2023-07-31T02:21:04;3.63;;;1.10;;
33954;SDS011;20233;50.804;7.126;2023-07-31T02:23:29;5.00;;;1.27;;
33954;SDS011;20233;50.804;7.126;2023-07-31T02:25:55;4.25;;;1.33;;
33954;SDS011;20233;50.804;7.126;2023-07-31T02:28:20;3.00;;;0.95;;
33954;SDS011;20233;50.804;7.126;2023-07-31T02:30:46;4.35;;;1.15;;
33954;SDS011;20233;50.804;7.126;2023-07-31T02:33:11;3.08;;;1.17;;
33954;SDS011;20233;50.804;7.126;2023-07-31T02:35:37;4.85;;;1.50;;
33954;SDS011;20233;50.804;7.126;2023-07-31T02:38:02;6.88;;;1.33;;
33954;SDS011;20233;50.804;7.126;2023-07-31T02:40:28;8.65;;;1.77;;
33954;SDS011;20233;50.804;7.126;2023-07-31T02:42:53;4.93;;;1.25;;
33954;SDS011;20233;50.804;7.126;2023-07-31T02:45:19;3.33;;;1.00;;
33954;SDS011;20233;50.804;7.126;2023-07-31T02:47:45;4.93;;;1.58;;
33954;SDS011;20233;50.804;7.126;2023-07-31T02:50:10;5.85;;;1.52;;
33954;SDS011;20233;50.804;7.126;2023-07-31T02:52:36;3.85;;;1.50;;
33954;SDS011;20233;50.804;7.126;2023-07-31T02:55:01;4.65;;;1.48;;
33954;SDS011;20233;50.804;7.126;2023-07-31T02:57:27;5.20;;;1.00;;
33954;SDS011;20233;50.804;7.126;2023-07-31T02:59:53;5.15;;;1.65;;
33954;SDS011;20233;50.804;7.126;2023-07-31T03:02:18;4.93;;;1.58;;
33954;SDS011;20233;50.804;7.126;2023-07-31T03:04:44;4.10;;;1.63;;
33954;SDS011;20233;50.804;7.126;2023-07-31T03:07:09;5.32;;;1.05;;
33954;SDS011;20233;50.804;7.126;2023-07-31T03:09:35;6.75;;;2.22;;
33954;SDS011;20233;50.804;7.126;2023-07-31T03:12:00;6.05;;;1.80;;
33954;SDS011;20233;50.804;7.126;2023-07-31T03:14:26;5.75;;;1.23;;
33954;SDS011;20233;50.804;7.126;2023-07-31T03:16:52;3.83;;;1.65;;
33954;SDS011;20233;50.804;7.126;2023-07-31T03:19:17;5.28;;;1.48;;
33954;SDS011;20233;50.804;7.126;2023-07-31T03:21:43;6.72;;;2.50;;
33954;SDS011;20233;50.804;7.126;2023-07-31T03:24:08;5.68;;;1.65;;
33954;SDS011;20233;50.804;7.126;2023-07-31T03:26:34;6.05;;;1.58;;
33954;SDS011;20233;50.804;7.126;2023-07-31T03:29:00;8.40;;;1.92;;
33954;SDS011;20233;50.804;7.126;2023-07-31T03:31:25;8.38;;;1.88;;
33954;SDS011;20233;50.804;7.126;2023-07-31T03:33:51;5.63;;;1.83;;
33954;SDS011;20233;50.804;7.126;2023-07-31T03:36:16;6.57;;;1.70;;
33954;SDS011;20233;50.804;7.126;2023-07-31T03:38:42;7.70;;;2.03;;
33954;SDS011;20233;50.804;7.126;2023-07-31T03:41:07;8.32;;;2.28;;
33954;SDS011;20233;50.804;7.126;2023-07-31T03:43:33;5.55;;;1.40;;
33954;SDS011;20233;50.804;7.126;2023-07-31T03:45:59;10.65;;;2.10;;
33954;SDS011;20233;50.804;7.126;2023-07-31T03:48:26;4.28;;;1.40;;
33954;SDS011;20233;50.804;7.126;2023-07-31T03:50:52;7.78;;;1.30;;
33954;SDS011;20233;50.804;7.126;2023-07-31T03:53:17;4.20;;;1.70;;
33954;SDS011;20233;50.804;7.126;2023-07-31T03:55:43;5.90;;;1.73;;
33954;SDS011;20233;50.804;7.126;2023-07-31T03:58:08;6.32;;;1.63;;
33954;SDS011;20233;50.804;7.126;2023-07-31T04:00:34;4.57;;;1.83;;
33954;SDS011;20233;50.804;7.126;2023-07-31T04:02:59;5.32;;;1.75;;
33954;SDS011;20233;50.804;7.126;2023-07-31T04:05:25;6.10;;;2.10;;
33954;SDS011;20233;50.804;7.126;2023-07-31T04:07:51;6.57;;;1.73;;
33954;SDS011;20233;50.804;7.126;2023-07-31T04:10:16;6.43;;;1.55;;
33954;SDS011;20233;50.804;7.126;2023-07-31T04:12:42;4.10;;;1.77;;
33954;SDS011;20233;50.804;7.126;2023-07-31T04:15:07;5.68;;;1.90;;
33954;SDS011;20233;50.804;7.126;2023-07-31T04:17:33;5.18;;;1.92;;
33954;SDS011;20233;50.804;7.126;2023-07-31T04:19:59;9.05;;;1.80;;
33954;SDS011;20233;50.804;7.126;2023-07-31T04:22:24;4.32;;;1.65;;
33954;SDS011;20233;50.804;7.126;2023-07-31T04:24:50;5.53;;;2.20;;
33954;SDS011;20233;50.804;7.126;2023-07-31T04:27:15;5.63;;;1.88;;
33954;SDS011;20233;50.804;7.126;2023-07-31T04:29:41;6.80;;;1.88;;
33954;SDS011;20233;50.804;7.126;2023-07-31T04:32:07;8.32;;;2.25;;
33954;SDS011;20233;50.804;7.126;2023-07-31T04:34:33;7.45;;;1.83;;
33954;SDS011;20233;50.804;7.126;2023-07-31T04:36:59;5.43;;;1.63;;
33954;SDS011;20233;50.804;7.126;2023-07-31T04:39:24;6.43;;;1.95;;
33954;SDS011;20233;50.804;7.126;2023-07-31T04:41:50;5.22;;;2.03;;
33954;SDS011;20233;50.804;7.126;2023-07-31T04:44:15;7.18;;;2.28;;
33954;SDS011;20233;50.804;7.126;2023-07-31T04:46:41;8.02;;;2.40;;
33954;SDS011;20233;50.804;7.126;2023-07-31T04:49:06;5.53;;;1.98;;
33954;SDS011;20233;50.804;7.126;2023-07-31T04:51:32;4.15;;;1.70;;
33954;SDS011;20233;50.804;7.126;2023-07-31T04:53:58;7.40;;;2.97;;
33954;SDS011;20233;50.804;7.126;2023-07-31T04:56:23;7.15;;;2.63;;
33954;SDS011;20233;50.804;7.126;2023-07-31T04:58:49;6.50;;;2.25;;
33954;SDS011;20233;50.804;7.126;2023-07-31T05:01:14;9.75;;;2.67;;
33954;SDS011;20233;50.804;7.126;2023-07-31T05:03:40;6.38;;;2.67;;
33954;SDS011;20233;50.804;7.126;2023-07-31T05:06:06;5.07;;;1.98;;
33954;SDS011;20233;50.804;7.126;2023-07-31T05:08:33;5.60;;;2.08;;
33954;SDS011;20233;50.804;7.126;2023-07-31T05:11:02;5.20;;;2.40;;
33954;SDS011;20233;50.804;7.126;2023-07-31T05:13:29;8.45;;;2.83;;
33954;SDS011;20233;50.804;7.126;2023-07-31T05:15:55;6.20;;;2.22;;
33954;SDS011;20233;50.804;7.126;2023-07-31T05:18:22;5.07;;;2.08;;
33954;SDS011;20233;50.804;7.126;2023-07-31T05:20:48;7.10;;;2.15;;
33954;SDS011;20233;50.804;7.126;2023-07-31T05:23:14;6.13;;;2.60;;
33954;SDS011;20233;50.804;7.126;2023-07-31T05:25:40;5.45;;;1.75;;
33954;SDS011;20233;50.804;7.126;2023-07-31T05:28:07;8.23;;;2.28;;
33954;SDS011;20233;50.804;7.126;2023-07-31T05:30:33;6.07;;;2.28;;
33954;SDS011;20233;50.804;7.126;2023-07-31T05:33:00;5.88;;;2.05;;
33954;SDS011;20233;50.804;7.126;2023-07-31T05:35:27;5.03;;;2.10;;
33954;SDS011;20233;50.804;7.126;2023-07-31T05:37:56;4.43;;;2.17;;
33954;SDS011;20233;50.804;7.126;2023-07-31T05:40:22;7.32;;;2.22;;
33954;SDS011;20233;50.804;7.126;2023-07-31T05:42:49;7.45;;;2.33;;
33954;SDS011;20233;50.804;7.126;2023-07-31T05:45:16;5.72;;;1.90;;
33954;SDS011;20233;50.804;7.126;2023-07-31T05:47:42;4.07;;;1.95;;
33954;SDS011;20233;50.804;7.126;2023-07-31T05:50:09;5.47;;;2.10;;
33954;SDS011;20233;50.804;7.126;2023-07-31T05:52:35;5.03;;;1.90;;
33954;SDS011;20233;50.804;7.126;2023-07-31T05:55:02;6.13;;;2.08;;
33954;SDS011;20233;50.804;7.126;2023-07-31T05:57:29;7.22;;;1.67;;
33954;SDS011;20233;50.804;7.126;2023-07-31T05:59:56;4.25;;;1.75;;
33954;SDS011;20233;50.804;7.126;2023-07-31T06:02:23;4.32;;;2.33;;
33954;SDS011;20233;50.804;7.126;2023-07-31T06:04:50;4.53;;;1.95;;
33954;SDS011;20233;50.804;7.126;2023-07-31T06:07:16;4.85;;;1.88;;
33954;SDS011;20233;50.804;7.126;2023-07-31T06:09:42;4.18;;;2.10;;
33954;SDS011;20233;50.804;7.126;2023-07-31T06:12:09;3.72;;;1.83;;
33954;SDS011;20233;50.804;7.126;2023-07-31T06:14:35;5.57;;;2.15;;
33954;SDS011;20233;50.804;7.126;2023-07-31T06:17:01;6.82;;;1.92;;
33954;SDS011;20233;50.804;7.126;2023-07-31T06:19:27;6.13;;;1.90;;
33954;SDS011;20233;50.804;7.126;2023-07-31T06:21:53;5.22;;;1.90;;
33954;SDS011;20233;50.804;7.126;2023-07-31T06:24:20;4.65;;;1.50;;
33954;SDS011;20233;50.804;7.126;2023-07-31T06:26:47;7.30;;;2.00;;
33954;SDS011;20233;50.804;7.126;2023-07-31T06:29:13;6.78;;;2.22;;
33954;SDS011;20233;50.804;7.126;2023-07-31T06:31:40;8.00;;;2.08;;
33954;SDS011;20233;50.804;7.126;2023-07-31T06:34:07;8.43;;;2.10;;
33954;SDS011;20233;50.804;7.126;2023-07-31T06:36:37;4.60;;;1.90;;
33954;SDS011;20233;50.804;7.126;2023-07-31T06:39:03;5.95;;;2.50;;
33954;SDS011;20233;50.804;7.126;2023-07-31T06:41:30;6.05;;;1.98;;
33954;SDS011;20233;50.804;7.126;2023-07-31T06:43:56;6.80;;;2.17;;
33954;SDS011;20233;50.804;7.126;2023-07-31T06:46:23;6.53;;;2.13;;
33954;SDS011;20233;50.804;7.126;2023-07-31T06:48:49;6.90;;;2.00;;
33954;SDS011;20233;50.804;7.126;2023-07-31T06:51:15;7.82;;;1.95;;
33954;SDS011;20233;50.804;7.126;2023-07-31T06:53:41;5.53;;;2.35;;
33954;SDS011;20233;50.804;7.126;2023-07-31T06:56:10;5.28;;;1.92;;
33954;SDS011;20233;50.804;7.126;2023-07-31T06:58:36;4.57;;;2.67;;
33954;SDS011;20233;50.804;7.126;2023-07-31T07:01:02;8.60;;;2.72;;
33954;SDS011;20233;50.804;7.126;2023-07-31T07:03:28;7.32;;;2.63;;
33954;SDS011;20233;50.804;7.126;2023-07-31T07:05:55;7.05;;;2.40;;
33954;SDS011;20233;50.804;7.126;2023-07-31T07:08:21;8.18;;;2.70;;
33954;SDS011;20233;50.804;7.126;2023-07-31T07:10:47;7.47;;;2.45;;
33954;SDS011;20233;50.804;7.126;2023-07-31T07:13:14;6.07;;;2.00;;
33954;SDS011;20233;50.804;7.126;2023-07-31T07:15:40;6.35;;;2.30;;
33954;SDS011;20233;50.804;7.126;2023-07-31T07:18:06;7.80;;;2.92;;
33954;SDS011;20233;50.804;7.126;2023-07-31T07:20:35;5.25;;;2.33;;
33954;SDS011;20233;50.804;7.126;2023-07-31T07:23:02;6.88;;;2.10;;
33954;SDS011;20233;50.804;7.126;2023-07-31T07:25:28;5.93;;;2.90;;
33954;SDS011;20233;50.804;7.126;2023-07-31T07:27:55;5.60;;;2.53;;
33954;SDS011;20233;50.804;7.126;2023-07-31T07:30:21;8.30;;;2.47;;
33954;SDS011;20233;50.804;7.126;2023-07-31T07:32:49;7.63;;;2.63;;
33954;SDS011;20233;50.804;7.126;2023-07-31T07:35:15;9.75;;;2.60;;
33954;SDS011;20233;50.804;7.126;2023-07-31T07:37:41;5.10;;;2.58;;
33954;SDS011;20233;50.804;7.126;2023-07-31T07:40:08;6.18;;;2.72;;
33954;SDS011;20233;50.804;7.126;2023-07-31T07:42:35;9.15;;;2.75;;
33954;SDS011;20233;50.804;7.126;2023-07-31T07:45:01;6.68;;;2.60;;
33954;SDS011;20233;50.804;7.126;2023-07-31T07:47:28;5.65;;;2.90;;
33954;SDS011;20233;50.804;7.126;2023-07-31T07:49:54;6.82;;;2.58;;
33954;SDS011;20233;50.804;7.126;2023-07-31T07:52:21;5.88;;;2.92;;
33954;SDS011;20233;50.804;7.126;2023-07-31T07:54:47;6.30;;;2.97;;
33954;SDS011;20233;50.804;7.126;2023-07-31T07:57:13;5.80;;;2.80;;
33954;SDS011;20233;50.804;7.126;2023-07-31T07:59:40;5.63;;;2.60;;
33954;SDS011;20233;50.804;7.126;2023-07-31T08:02:07;6.10;;;2.58;;
33954;SDS011;20233;50.804;7.126;2023-07-31T08:04:34;9.60;;;3.05;;
33954;SDS011;20233;50.804;7.126;2023-07-31T08:07:00;5.53;;;2.95;;
33954;SDS011;20233;50.804;7.126;2023-07-31T08:09:26;7.97;;;3.08;;
33954;SDS011;20233;50.804;7.126;2023-07-31T08:11:52;8.25;;;2.88;;
33954;SDS011;20233;50.804;7.126;2023-07-31T08:14:19;8.35;;;2.60;;
33954;SDS011;20233;50.804;7.126;2023-07-31T08:16:45;5.35;;;2.38;;
33954;SDS011;20233;50.804;7.126;2023-07-31T08:19:11;6.63;;;2.80;;
33954;SDS011;20233;50.804;7.126;2023-07-31T08:21:37;5.75;;;2.42;;
33954;SDS011;20233;50.804;7.126;2023-07-31T08:24:03;5.28;;;2.45;;
33954;SDS011;20233;50.804;7.126;2023-07-31T08:26:29;9.02;;;2.85;;
33954;SDS011;20233;50.804;7.126;2023-07-31T08:28:56;7.32;;;2.58;;
33954;SDS011;20233;50.804;7.126;2023-07-31T08:31:23;7.72;;;2.42;;
33954;SDS011;20233;50.804;7.126;2023-07-31T08:33:49;6.60;;;2.60;;
33954;SDS011;20233;50.804;7.126;2023-07-31T08:36:15;6.18;;;2.92;;
33954;SDS011;20233;50.804;7.126;2023-07-31T08:38:41;5.55;;;2.80;;
33954;SDS011;20233;50.804;7.126;2023-07-31T08:41:08;6.15;;;1.95;;
33954;SDS011;20233;50.804;7.126;2023-07-31T08:43:35;5.55;;;3.10;;
33954;SDS011;20233;50.804;7.126;2023-07-31T08:46:03;7.72;;;2.70;;
33954;SDS011;20233;50.804;7.126;2023-07-31T08:48:30;5.72;;;2.60;;
33954;SDS011;20233;50.804;7.126;2023-07-31T08:51:00;7.05;;;2.63;;
33954;SDS011;20233;50.804;7.126;2023-07-31T08:53:26;8.82;;;2.33;;
33954;SDS011;20233;50.804;7.126;2023-07-31T08:55:53;5.05;;;2.33;;
33954;SDS011;20233;50.804;7.126;2023-07-31T08:58:19;6.75;;;2.33;;
33954;SDS011;20233;50.804;7.126;2023-07-31T09:00:49;7.43;;;2.53;;
33954;SDS011;20233;50.804;7.126;2023-07-31T09:03:18;8.38;;;2.70;;
33954;SDS011;20233;50.804;7.126;2023-07-31T09:05:44;4.55;;;2.30;;
33954;SDS011;20233;50.804;7.126;2023-07-31T09:08:12;5.75;;;1.77;;
33954;SDS011;20233;50.804;7.126;2023-07-31T09:10:43;5.55;;;1.63;;
33954;SDS011;20233;50.804;7.126;2023-07-31T09:13:11;4.97;;;1.80;;
33954;SDS011;20233;50.804;7.126;2023-07-31T09:15:39;5.53;;;1.85;;
33954;SDS011;20233;50.804;7.126;2023-07-31T09:18:08;5.18;;;2.03;;
33954;SDS011;20233;50.804;7.126;2023-07-31T09:20:35;5.55;;;1.73;;
33954;SDS011;20233;50.804;7.126;2023-07-31T09:25:36;4.78;;;2.03;;
33954;SDS011;20233;50.804;7.126;2023-07-31T09:28:05;4.90;;;1.95;;
33954;SDS011;20233;50.804;7.126;2023-07-31T09:33:16;6.90;;;2.05;;
33954;SDS011;20233;50.804;7.126;2023-07-31T09:35:43;7.65;;;1.95;;
33954;SDS011;20233;50.804;7.126;2023-07-31T09:38:10;6.35;;;2.22;;
33954;SDS011;20233;50.804;7.126;2023-07-31T09:40:47;7.68;;;2.00;;
33954;SDS011;20233;50.804;7.126;2023-07-31T09:43:17;6.25;;;2.50;;
33954;SDS011;20233;50.804;7.126;2023-07-31T09:45:45;7.70;;;2.45;;
33954;SDS011;20233;50.804;7.126;2023-07-31T09:48:12;7.13;;;2.17;;
33954;SDS011;20233;50.804;7.126;2023-07-31T09:50:42;4.88;;;2.10;;
33954;SDS011;20233;50.804;7.126;2023-07-31T09:53:13;7.15;;;2.50;;
33954;SDS011;20233;50.804;7.126;2023-07-31T09:55:39;6.63;;;2.40;;
33954;SDS011;20233;50.804;7.126;2023-07-31T09:58:07;5.20;;;2.15;;
33954;SDS011;20233;50.804;7.126;2023-07-31T10:00:35;5.20;;;1.83;;
33954;SDS011;20233;50.804;7.126;2023-07-31T10:03:04;3.88;;;2.13;;
33954;SDS011;20233;50.804;7.126;2023-07-31T10:08:06;8.35;;;2.70;;
33954;SDS011;20233;50.804;7.126;2023-07-31T10:10:35;6.68;;;3.17;;
33954;SDS011;20233;50.804;7.126;2023-07-31T10:13:02;6.32;;;2.50;;
33954;SDS011;20233;50.804;7.126;2023-07-31T10:15:31;5.32;;;2.55;;
33954;SDS011;20233;50.804;7.126;2023-07-31T10:17:58;7.57;;;2.33;;
33954;SDS011;20233;50.804;7.126;2023-07-31T10:20:24;5.75;;;2.67;;
33954;SDS011;20233;50.804;7.126;2023-07-31T10:22:54;4.72;;;2.15;;
33954;SDS011;20233;50.804;7.126;2023-07-31T10:25:24;5.07;;;1.58;;
33954;SDS011;20233;50.804;7.126;2023-07-31T10:27:52;6.45;;;2.22;;
33954;SDS011;20233;50.804;7.126;2023-07-31T10:30:26;8.52;;;2.78;;
33954;SDS011;20233;50.804;7.126;2023-07-31T10:32:55;9.35;;;3.00;;
33954;SDS011;20233;50.804;7.126;2023-07-31T10:35:23;8.82;;;2.63;;
33954;SDS011;20233;50.804;7.126;2023-07-31T10:37:49;9.20;;;2.85;;
33954;SDS011;20233;50.804;7.126;2023-07-31T10:43:06;5.72;;;1.50;;
33954;SDS011;20233;50.804;7.126;2023-07-31T10:45:38;2.47;;;1.17;;
33954;SDS011;20233;50.804;7.126;2023-07-31T10:48:13;2.33;;;0.75;;
33954;SDS011;20233;50.804;7.126;2023-07-31T10:50:47;5.05;;;1.30;;
33954;SDS011;20233;50.804;7.126;2023-07-31T10:53:25;9.80;;;1.02;;
33954;SDS011;20233;50.804;7.126;2023-07-31T10:55:52;3.92;;;0.93;;
33954;SDS011;20233;50.804;7.126;2023-07-31T10:58:23;5.03;;;0.68;;
33954;SDS011;20233;50.804;7.126;2023-07-31T11:00:49;2.40;;;0.60;;
33954;SDS011;20233;50.804;7.126;2023-07-31T11:03:24;2.80;;;0.88;;
33954;SDS011;20233;50.804;7.126;2023-07-31T11:08:25;2.30;;;0.88;;
33954;SDS011;20233;50.804;7.126;2023-07-31T11:13:29;3.17;;;0.50;;
33954;SDS011;20233;50.804;7.126;2023-07-31T11:15:56;1.88;;;0.55;;
33954;SDS011;20233;50.804;7.126;2023-07-31T11:18:21;3.20;;;0.50;;
33954;SDS011;20233;50.804;7.126;2023-07-31T11:20:49;3.60;;;0.70;;
33954;SDS011;20233;50.804;7.126;2023-07-31T11:23:16;2.58;;;0.65;;
33954;SDS011;20233;50.804;7.126;2023-07-31T11:25:43;4.07;;;0.40;;
33954;SDS011;20233;50.804;7.126;2023-07-31T11:28:11;2.80;;;0.52;;
33954;SDS011;20233;50.804;7.126;2023-07-31T11:30:41;2.53;;;0.63;;
33954;SDS011;20233;50.804;7.126;2023-07-31T11:33:09;1.75;;;0.30;;
33954;SDS011;20233;50.804;7.126;2023-07-31T11:35:47;1.88;;;0.28;;
33954;SDS011;20233;50.804;7.126;2023-07-31T11:38:30;1.92;;;0.30;;
33954;SDS011;20233;50.804;7.126;2023-07-31T11:40:59;1.88;;;0.30;;
33954;SDS011;20233;50.804;7.126;2023-07-31T11:43:30;1.00;;;0.30;;
33954;SDS011;20233;50.804;7.126;2023-07-31T11:45:58;0.88;;;0.20;;
33954;SDS011;20233;50.804;7.126;2023-07-31T11:48:25;1.33;;;0.20;;
33954;SDS011;20233;50.804;7.126;2023-07-31T11:51:00;1.70;;;0.38;;
33954;SDS011;20233;50.804;7.126;2023-07-31T11:53:29;4.57;;;0.40;;
33954;SDS011;20233;50.804;7.126;2023-07-31T11:56:13;2.25;;;0.30;;
33954;SDS011;20233;50.804;7.126;2023-07-31T11:58:43;0.70;;;0.20;;
33954;SDS011;20233;50.804;7.126;2023-07-31T12:01:15;0.70;;;0.28;;
33954;SDS011;20233;50.804;7.126;2023-07-31T12:03:46;3.37;;;0.27;;
33954;SDS011;20233;50.804;7.126;2023-07-31T12:06:13;2.17;;;0.55;;
33954;SDS011;20233;50.804;7.126;2023-07-31T12:08:39;1.02;;;0.20;;
33954;SDS011;20233;50.804;7.126;2023-07-31T12:11:05;1.25;;;0.30;;
33954;SDS011;20233;50.804;7.126;2023-07-31T12:13:40;1.13;;;0.20;;
33954;SDS011;20233;50.804;7.126;2023-07-31T12:16:06;1.67;;;0.30;;
33954;SDS011;20233;50.804;7.126;2023-07-31T12:18:34;1.45;;;0.20;;
33954;SDS011;20233;50.804;7.126;2023-07-31T12:21:01;3.13;;;0.40;;
33954;SDS011;20233;50.804;7.126;2023-07-31T12:23:31;2.05;;;0.40;;
33954;SDS011;20233;50.804;7.126;2023-07-31T12:28:44;1.30;;;0.10;;
33954;SDS011;20233;50.804;7.126;2023-07-31T12:31:11;2.38;;;0.20;;
33954;SDS011;20233;50.804;7.126;2023-07-31T12:33:42;0.90;;;0.30;;
33954;SDS011;20233;50.804;7.126;2023-07-31T12:36:15;2.00;;;0.73;;
33954;SDS011;20233;50.804;7.126;2023-07-31T12:38:45;3.47;;;0.60;;
33954;SDS011;20233;50.804;7.126;2023-07-31T12:41:11;3.35;;;0.50;;
33954;SDS011;20233;50.804;7.126;2023-07-31T12:43:39;3.83;;;0.65;;
33954;SDS011;20233;50.804;7.126;2023-07-31T12:46:06;2.42;;;0.50;;
33954;SDS011;20233;50.804;7.126;2023-07-31T12:48:35;3.35;;;0.82;;
33954;SDS011;20233;50.804;7.126;2023-07-31T12:51:02;2.15;;;0.80;;
33954;SDS011;20233;50.804;7.126;2023-07-31T12:53:29;2.13;;;0.80;;
33954;SDS011;20233;50.804;7.126;2023-07-31T12:55:56;2.75;;;1.30;;
33954;SDS011;20233;50.804;7.126;2023-07-31T12:58:25;3.22;;;1.10;;
33954;SDS011;20233;50.804;7.126;2023-07-31T13:00:51;3.33;;;0.95;;
33954;SDS011;20233;50.804;7.126;2023-07-31T13:03:18;2.90;;;1.58;;
33954;SDS011;20233;50.804;7.126;2023-07-31T13:05:44;3.60;;;1.48;;
33954;SDS011;20233;50.804;7.126;2023-07-31T13:08:10;3.65;;;1.33;;
33954;SDS011;20233;50.804;7.126;2023-07-31T13:10:37;2.72;;;1.35;;
33954;SDS011;20233;50.804;7.126;2023-07-31T13:13:03;3.38;;;1.40;;
33954;SDS011;20233;50.804;7.126;2023-07-31T13:15:29;3.10;;;1.75;;
33954;SDS011;20233;50.804;7.126;2023-07-31T13:17:55;3.88;;;1.73;;
33954;SDS011;20233;50.804;7.126;2023-07-31T13:20:22;2.90;;;1.77;;
33954;SDS011;20233;50.804;7.126;2023-07-31T13:22:48;2.95;;;1.70;;
33954;SDS011;20233;50.804;7.126;2023-07-31T13:25:14;3.00;;;1.67;;
33954;SDS011;20233;50.804;7.126;2023-07-31T13:27:40;4.65;;;1.83;;
33954;SDS011;20233;50.804;7.126;2023-07-31T13:30:07;5.07;;;1.73;;
33954;SDS011;20233;50.804;7.126;2023-07-31T13:32:34;2.78;;;1.65;;
33954;SDS011;20233;50.804;7.126;2023-07-31T13:35:05;4.87;;;2.27;;
33954;SDS011;20233;50.804;7.126;2023-07-31T13:37:32;3.03;;;1.92;;
33954;SDS011;20233;50.804;7.126;2023-07-31T13:39:58;2.75;;;1.58;;
33954;SDS011;20233;50.804;7.126;2023-07-31T13:42:25;2.70;;;1.30;;
33954;SDS011;20233;50.804;7.126;2023-07-31T13:44:53;3.13;;;1.40;;
33954;SDS011;20233;50.804;7.126;2023-07-31T13:47:21;2.75;;;1.40;;
33954;SDS011;20233;50.804;7.126;2023-07-31T13:49:47;2.97;;;1.10;;
33954;SDS011;20233;50.804;7.126;2023-07-31T13:52:14;2.33;;;0.80;;
33954;SDS011;20233;50.804;7.126;2023-07-31T13:54:40;2.70;;;0.98;;
33954;SDS011;20233;50.804;7.126;2023-07-31T13:57:08;3.22;;;0.73;;
33954;SDS011;20233;50.804;7.126;2023-07-31T13:59:34;2.65;;;0.50;;
33954;SDS011;20233;50.804;7.126;2023-07-31T14:02:01;2.80;;;1.05;;
33954;SDS011;20233;50.804;7.126;2023-07-31T14:04:28;3.33;;;0.82;;
33954;SDS011;20233;50.804;7.126;2023-07-31T14:06:55;3.35;;;0.70;;
33954;SDS011;20233;50.804;7.126;2023-07-31T14:09:22;1.85;;;0.52;;
33954;SDS011;20233;50.804;7.126;2023-07-31T14:11:49;2.03;;;0.70;;
33954;SDS011;20233;50.804;7.126;2023-07-31T14:14:15;2.00;;;0.50;;
33954;SDS011;20233;50.804;7.126;2023-07-31T14:16:43;2.35;;;0.60;;
33954;SDS011;20233;50.804;7.126;2023-07-31T14:19:09;1.52;;;0.63;;
33954;SDS011;20233;50.804;7.126;2023-07-31T14:21:35;1.95;;;0.60;;
33954;SDS011;20233;50.804;7.126;2023-07-31T14:24:02;1.95;;;0.77;;
33954;SDS011;20233;50.804;7.126;2023-07-31T14:26:29;3.28;;;0.90;;
33954;SDS011;20233;50.804;7.126;2023-07-31T14:28:56;2.33;;;0.98;;
33954;SDS011;20233;50.804;7.126;2023-07-31T14:31:22;2.50;;;0.85;;
33954;SDS011;20233;50.804;7.126;2023-07-31T14:33:51;2.33;;;1.00;;
33954;SDS011;20233;50.804;7.126;2023-07-31T14:36:18;2.38;;;0.82;;
33954;SDS011;20233;50.804;7.126;2023-07-31T14:38:44;2.35;;;0.80;;
33954;SDS011;20233;50.804;7.126;2023-07-31T14:41:11;1.90;;;0.60;;
33954;SDS011;20233;50.804;7.126;2023-07-31T14:43:37;2.08;;;0.50;;
33954;SDS011;20233;50.804;7.126;2023-07-31T14:46:04;5.05;;;0.88;;
33954;SDS011;20233;50.804;7.126;2023-07-31T14:48:31;1.80;;;0.63;;
33954;SDS011;20233;50.804;7.126;2023-07-31T14:50:58;2.42;;;0.60;;
33954;SDS011;20233;50.804;7.126;2023-07-31T14:53:25;2.33;;;0.55;;
33954;SDS011;20233;50.804;7.126;2023-07-31T14:55:51;2.33;;;0.70;;
33954;SDS011;20233;50.804;7.126;2023-07-31T14:58:18;1.98;;;0.57;;
33954;SDS011;20233;50.804;7.126;2023-07-31T15:00:44;2.28;;;0.68;;
33954;SDS011;20233;50.804;7.126;2023-07-31T15:03:10;2.22;;;0.70;;
33954;SDS011;20233;50.804;7.126;2023-07-31T15:05:37;3.63;;;0.90;;
33954;SDS011;20233;50.804;7.126;2023-07-31T15:08:03;2.15;;;0.73;;
33954;SDS011;20233;50.804;7.126;2023-07-31T15:10:29;2.53;;;0.88;;
33954;SDS011;20233;50.804;7.126;2023-07-31T15:12:55;2.83;;;0.90;;